sensor_id;sensor_type;location;lat;lon;timestamp;P1;durP1;ratioP1;P2;durP2;ratioP2
57778;SDS011;43608;49.486;9.640;2023-03-15T00:00:22;1.63;;;1.40;;
57778;SDS011;43608;49.486;9.640;2023-03-15T00:00:53;1.67;;;1.30;;
57778;SDS011;43608;49.486;9.640;2023-03-15T00:01:24;2.25;;;1.50;;
57778;SDS011;43608;49.486;9.640;2023-03-15T00:01:56;1.77;;;1.40;;
57778;SDS011;43608;49.486;9.640;2023-03-15T00:02:26;1.73;;;1.30;;
57778;SDS011;43608;49.486;9.640;2023-03-15T00:02:57;3.03;;;1.40;;
57778;SDS011;43608;49.486;9.640;2023-03-15T00:03:27;2.53;;;1.50;;
57778;SDS011;43608;49.486;9.640;2023-03-15T00:03:58;1.60;;;1.30;;
57778;SDS011;43608;49.486;9.640;2023-03-15T00:04:28;2.50;;;1.50;;
57778;SDS011;43608;49.486;9.640;2023-03-15T00:05:01;1.55;;;1.30;;
57778;SDS011;43608;49.486;9.640;2023-03-15T00:05:32;1.52;;;1.30;;
57778;SDS011;43608;49.486;9.640;2023-03-15T00:06:03;2.42;;;1.48;;
57778;SDS011;43608;49.486;9.640;2023-03-15T00:06:34;1.83;;;1.40;;
57778;SDS011;43608;49.486;9.640;2023-03-15T00:07:04;1.83;;;1.27;;
57778;SDS011;43608;49.486;9.640;2023-03-15T00:07:34;1.83;;;1.58;;
57778;SDS011;43608;49.486;9.640;2023-03-15T00:08:05;2.65;;;1.30;;
57778;SDS011;43608;49.486;9.640;2023-03-15T00:08:35;1.92;;;1.48;;
57778;SDS011;43608;49.486;9.640;2023-03-15T00:09:06;2.28;;;1.55;;
57778;SDS011;43608;49.486;9.640;2023-03-15T00:09:37;1.75;;;1.40;;
57778;SDS011;43608;49.486;9.640;2023-03-15T00:10:07;1.90;;;1.30;;
57778;SDS011;43608;49.486;9.640;2023-03-15T00:10:39;1.40;;;1.30;;
57778;SDS011;43608;49.486;9.640;2023-03-15T00:11:14;1.48;;;1.30;;
57778;SDS011;43608;49.486;9.640;2023-03-15T00:11:45;1.67;;;1.33;;
57778;SDS011;43608;49.486;9.640;2023-03-15T00:12:16;2.22;;;1.30;;
57778;SDS011;43608;49.486;9.640;2023-03-15T00:12:46;1.15;;;1.10;;
57778;SDS011;43608;49.486;9.640;2023-03-15T00:13:16;1.80;;;1.42;;
57778;SDS011;43608;49.486;9.640;2023-03-15T00:13:47;1.20;;;1.20;;
57778;SDS011;43608;49.486;9.640;2023-03-15T00:14:17;1.63;;;1.40;;
57778;SDS011;43608;49.486;9.640;2023-03-15T00:14:48;2.85;;;1.38;;
57778;SDS011;43608;49.486;9.640;2023-03-15T00:15:19;1.70;;;1.25;;
57778;SDS011;43608;49.486;9.640;2023-03-15T00:15:51;2.13;;;1.30;;
57778;SDS011;43608;49.486;9.640;2023-03-15T00:16:25;2.05;;;1.45;;
57778;SDS011;43608;49.486;9.640;2023-03-15T00:16:56;1.55;;;1.20;;
57778;SDS011;43608;49.486;9.640;2023-03-15T00:17:26;2.28;;;1.40;;
57778;SDS011;43608;49.486;9.640;2023-03-15T00:17:56;1.33;;;1.20;;
57778;SDS011;43608;49.486;9.640;2023-03-15T00:18:27;2.05;;;1.20;;
57778;SDS011;43608;49.486;9.640;2023-03-15T00:18:57;2.25;;;1.40;;
57778;SDS011;43608;49.486;9.640;2023-03-15T00:19:28;1.60;;;1.15;;
57778;SDS011;43608;49.486;9.640;2023-03-15T00:19:59;1.40;;;1.30;;
57778;SDS011;43608;49.486;9.640;2023-03-15T00:20:30;1.67;;;1.30;;
57778;SDS011;43608;49.486;9.640;2023-03-15T00:21:00;1.45;;;1.23;;
57778;SDS011;43608;49.486;9.640;2023-03-15T00:21:31;2.28;;;1.27;;
57778;SDS011;43608;49.486;9.640;2023-03-15T00:22:01;1.35;;;1.25;;
57778;SDS011;43608;49.486;9.640;2023-03-15T00:22:32;1.20;;;1.10;;
57778;SDS011;43608;49.486;9.640;2023-03-15T00:23:02;1.15;;;1.08;;
57778;SDS011;43608;49.486;9.640;2023-03-15T00:23:33;1.88;;;1.50;;
57778;SDS011;43608;49.486;9.640;2023-03-15T00:24:03;1.70;;;1.23;;
57778;SDS011;43608;49.486;9.640;2023-03-15T00:24:34;1.23;;;1.13;;
57778;SDS011;43608;49.486;9.640;2023-03-15T00:25:04;1.58;;;1.33;;
57778;SDS011;43608;49.486;9.640;2023-03-15T00:25:35;1.27;;;1.23;;
57778;SDS011;43608;49.486;9.640;2023-03-15T00:26:06;1.58;;;1.30;;
57778;SDS011;43608;49.486;9.640;2023-03-15T00:26:37;1.52;;;1.38;;
57778;SDS011;43608;49.486;9.640;2023-03-15T00:27:08;1.20;;;1.20;;
57778;SDS011;43608;49.486;9.640;2023-03-15T00:27:38;1.15;;;1.10;;
57778;SDS011;43608;49.486;9.640;2023-03-15T00:28:09;1.40;;;1.30;;
57778;SDS011;43608;49.486;9.640;2023-03-15T00:28:39;1.60;;;1.40;;
57778;SDS011;43608;49.486;9.640;2023-03-15T00:29:10;1.20;;;1.10;;
57778;SDS011;43608;49.486;9.640;2023-03-15T00:29:41;1.67;;;1.35;;
57778;SDS011;43608;49.486;9.640;2023-03-15T00:30:11;1.48;;;1.38;;
57778;SDS011;43608;49.486;9.640;2023-03-15T00:30:42;1.10;;;1.10;;
57778;SDS011;43608;49.486;9.640;2023-03-15T00:31:44;1.25;;;1.20;;
57778;SDS011;43608;49.486;9.640;2023-03-15T00:32:15;1.70;;;1.30;;
57778;SDS011;43608;49.486;9.640;2023-03-15T00:32:45;1.52;;;1.27;;
57778;SDS011;43608;49.486;9.640;2023-03-15T00:33:15;1.75;;;1.27;;
57778;SDS011;43608;49.486;9.640;2023-03-15T00:33:46;1.35;;;1.25;;
57778;SDS011;43608;49.486;9.640;2023-03-15T00:34:17;1.30;;;1.20;;
57778;SDS011;43608;49.486;9.640;2023-03-15T00:34:52;2.03;;;1.38;;
57778;SDS011;43608;49.486;9.640;2023-03-15T00:35:23;1.73;;;1.30;;
57778;SDS011;43608;49.486;9.640;2023-03-15T00:35:54;1.83;;;1.30;;
57778;SDS011;43608;49.486;9.640;2023-03-15T00:36:24;1.45;;;1.33;;
57778;SDS011;43608;49.486;9.640;2023-03-15T00:36:55;2.63;;;1.38;;
57778;SDS011;43608;49.486;9.640;2023-03-15T00:37:25;2.03;;;1.35;;
57778;SDS011;43608;49.486;9.640;2023-03-15T00:37:56;2.88;;;1.70;;
57778;SDS011;43608;49.486;9.640;2023-03-15T00:38:26;2.33;;;1.60;;
57778;SDS011;43608;49.486;9.640;2023-03-15T00:38:57;1.75;;;1.48;;
57778;SDS011;43608;49.486;9.640;2023-03-15T00:39:27;2.70;;;1.52;;
57778;SDS011;43608;49.486;9.640;2023-03-15T00:39:57;2.30;;;1.65;;
57778;SDS011;43608;49.486;9.640;2023-03-15T00:40:28;3.90;;;1.75;;
57778;SDS011;43608;49.486;9.640;2023-03-15T00:41:03;1.95;;;1.40;;
57778;SDS011;43608;49.486;9.640;2023-03-15T00:41:43;1.50;;;1.40;;
57778;SDS011;43608;49.486;9.640;2023-03-15T00:42:14;1.50;;;1.40;;
57778;SDS011;43608;49.486;9.640;2023-03-15T00:42:45;2.78;;;1.58;;
57778;SDS011;43608;49.486;9.640;2023-03-15T00:43:19;3.22;;;1.70;;
57778;SDS011;43608;49.486;9.640;2023-03-15T00:43:49;2.45;;;1.52;;
57778;SDS011;43608;49.486;9.640;2023-03-15T00:44:23;2.60;;;1.60;;
57778;SDS011;43608;49.486;9.640;2023-03-15T00:44:54;2.10;;;1.60;;
57778;SDS011;43608;49.486;9.640;2023-03-15T00:45:24;3.25;;;1.70;;
57778;SDS011;43608;49.486;9.640;2023-03-15T00:45:56;3.17;;;1.52;;
57778;SDS011;43608;49.486;9.640;2023-03-15T00:46:27;2.40;;;1.50;;
57778;SDS011;43608;49.486;9.640;2023-03-15T00:46:57;2.80;;;1.60;;
57778;SDS011;43608;49.486;9.640;2023-03-15T00:47:27;3.88;;;1.73;;
57778;SDS011;43608;49.486;9.640;2023-03-15T00:47:58;2.95;;;1.70;;
57778;SDS011;43608;49.486;9.640;2023-03-15T00:48:28;1.63;;;1.42;;
57778;SDS011;43608;49.486;9.640;2023-03-15T00:48:58;1.83;;;1.50;;
57778;SDS011;43608;49.486;9.640;2023-03-15T00:49:29;2.35;;;1.50;;
57778;SDS011;43608;49.486;9.640;2023-03-15T00:50:01;2.80;;;1.60;;
57778;SDS011;43608;49.486;9.640;2023-03-15T00:50:31;2.78;;;1.60;;
57778;SDS011;43608;49.486;9.640;2023-03-15T00:51:37;1.70;;;1.38;;
57778;SDS011;43608;49.486;9.640;2023-03-15T00:52:07;2.05;;;1.42;;
57778;SDS011;43608;49.486;9.640;2023-03-15T00:52:38;2.15;;;1.48;;
57778;SDS011;43608;49.486;9.640;2023-03-15T00:53:08;2.13;;;1.38;;
57778;SDS011;43608;49.486;9.640;2023-03-15T00:53:39;1.90;;;1.50;;
57778;SDS011;43608;49.486;9.640;2023-03-15T00:54:13;1.63;;;1.40;;
57778;SDS011;43608;49.486;9.640;2023-03-15T00:54:48;1.73;;;1.42;;
57778;SDS011;43608;49.486;9.640;2023-03-15T00:55:21;2.90;;;1.45;;
57778;SDS011;43608;49.486;9.640;2023-03-15T00:55:51;1.63;;;1.50;;
57778;SDS011;43608;49.486;9.640;2023-03-15T00:56:23;2.35;;;1.55;;
57778;SDS011;43608;49.486;9.640;2023-03-15T00:56:54;1.52;;;1.40;;
57778;SDS011;43608;49.486;9.640;2023-03-15T00:57:25;1.20;;;1.20;;
57778;SDS011;43608;49.486;9.640;2023-03-15T00:57:55;1.50;;;1.40;;
57778;SDS011;43608;49.486;9.640;2023-03-15T00:58:25;2.10;;;1.55;;
57778;SDS011;43608;49.486;9.640;2023-03-15T00:58:56;1.95;;;1.60;;
57778;SDS011;43608;49.486;9.640;2023-03-15T00:59:27;1.73;;;1.60;;
57778;SDS011;43608;49.486;9.640;2023-03-15T01:00:03;2.05;;;1.50;;
57778;SDS011;43608;49.486;9.640;2023-03-15T01:00:35;1.70;;;1.60;;
57778;SDS011;43608;49.486;9.640;2023-03-15T01:01:11;2.58;;;1.60;;
57778;SDS011;43608;49.486;9.640;2023-03-15T01:01:43;2.00;;;1.60;;
57778;SDS011;43608;49.486;9.640;2023-03-15T01:02:14;2.05;;;1.70;;
57778;SDS011;43608;49.486;9.640;2023-03-15T01:02:44;2.00;;;1.40;;
57778;SDS011;43608;49.486;9.640;2023-03-15T01:03:14;2.15;;;1.40;;
57778;SDS011;43608;49.486;9.640;2023-03-15T01:03:45;2.05;;;1.52;;
57778;SDS011;43608;49.486;9.640;2023-03-15T01:04:16;2.70;;;1.60;;
57778;SDS011;43608;49.486;9.640;2023-03-15T01:04:47;2.65;;;1.60;;
57778;SDS011;43608;49.486;9.640;2023-03-15T01:05:18;3.30;;;1.80;;
57778;SDS011;43608;49.486;9.640;2023-03-15T01:05:49;1.70;;;1.50;;
57778;SDS011;43608;49.486;9.640;2023-03-15T01:06:20;2.10;;;1.60;;
57778;SDS011;43608;49.486;9.640;2023-03-15T01:06:56;2.60;;;1.60;;
57778;SDS011;43608;49.486;9.640;2023-03-15T01:07:26;2.63;;;1.60;;
57778;SDS011;43608;49.486;9.640;2023-03-15T01:07:57;1.60;;;1.40;;
57778;SDS011;43608;49.486;9.640;2023-03-15T01:08:27;1.95;;;1.50;;
57778;SDS011;43608;49.486;9.640;2023-03-15T01:08:57;1.88;;;1.48;;
57778;SDS011;43608;49.486;9.640;2023-03-15T01:09:28;2.67;;;1.63;;
57778;SDS011;43608;49.486;9.640;2023-03-15T01:10:00;1.67;;;1.50;;
57778;SDS011;43608;49.486;9.640;2023-03-15T01:10:35;2.33;;;1.70;;
57778;SDS011;43608;49.486;9.640;2023-03-15T01:11:07;3.03;;;1.70;;
57778;SDS011;43608;49.486;9.640;2023-03-15T01:11:39;2.35;;;1.75;;
57778;SDS011;43608;49.486;9.640;2023-03-15T01:12:09;1.52;;;1.42;;
57778;SDS011;43608;49.486;9.640;2023-03-15T01:12:40;1.95;;;1.63;;
57778;SDS011;43608;49.486;9.640;2023-03-15T01:13:10;2.65;;;1.70;;
57778;SDS011;43608;49.486;9.640;2023-03-15T01:13:41;2.42;;;1.70;;
57778;SDS011;43608;49.486;9.640;2023-03-15T01:14:12;2.83;;;1.77;;
57778;SDS011;43608;49.486;9.640;2023-03-15T01:14:42;3.03;;;1.80;;
57778;SDS011;43608;49.486;9.640;2023-03-15T01:15:13;2.30;;;1.60;;
57778;SDS011;43608;49.486;9.640;2023-03-15T01:15:44;2.42;;;1.70;;
57778;SDS011;43608;49.486;9.640;2023-03-15T01:16:16;1.70;;;1.60;;
57778;SDS011;43608;49.486;9.640;2023-03-15T01:16:47;2.22;;;1.67;;
57778;SDS011;43608;49.486;9.640;2023-03-15T01:17:17;2.30;;;1.60;;
57778;SDS011;43608;49.486;9.640;2023-03-15T01:17:47;3.42;;;1.80;;
57778;SDS011;43608;49.486;9.640;2023-03-15T01:18:18;3.17;;;1.73;;
57778;SDS011;43608;49.486;9.640;2023-03-15T01:18:48;2.90;;;1.65;;
57778;SDS011;43608;49.486;9.640;2023-03-15T01:19:20;2.30;;;1.63;;
57778;SDS011;43608;49.486;9.640;2023-03-15T01:19:50;2.50;;;1.55;;
57778;SDS011;43608;49.486;9.640;2023-03-15T01:20:21;2.03;;;1.50;;
57778;SDS011;43608;49.486;9.640;2023-03-15T01:20:51;2.53;;;1.77;;
57778;SDS011;43608;49.486;9.640;2023-03-15T01:21:22;2.00;;;1.65;;
57778;SDS011;43608;49.486;9.640;2023-03-15T01:21:53;2.00;;;1.70;;
57778;SDS011;43608;49.486;9.640;2023-03-15T01:22:24;1.52;;;1.42;;
57778;SDS011;43608;49.486;9.640;2023-03-15T01:22:55;2.60;;;1.77;;
57778;SDS011;43608;49.486;9.640;2023-03-15T01:23:25;2.38;;;1.63;;
57778;SDS011;43608;49.486;9.640;2023-03-15T01:23:56;2.83;;;1.67;;
57778;SDS011;43608;49.486;9.640;2023-03-15T01:24:26;1.95;;;1.55;;
57778;SDS011;43608;49.486;9.640;2023-03-15T01:24:57;3.13;;;1.70;;
57778;SDS011;43608;49.486;9.640;2023-03-15T01:25:27;2.60;;;1.85;;
57778;SDS011;43608;49.486;9.640;2023-03-15T01:26:01;2.60;;;1.80;;
57778;SDS011;43608;49.486;9.640;2023-03-15T01:26:31;2.42;;;1.60;;
57778;SDS011;43608;49.486;9.640;2023-03-15T01:27:02;2.58;;;1.80;;
57778;SDS011;43608;49.486;9.640;2023-03-15T01:27:32;2.33;;;1.60;;
57778;SDS011;43608;49.486;9.640;2023-03-15T01:28:02;3.05;;;1.60;;
57778;SDS011;43608;49.486;9.640;2023-03-15T01:28:33;2.50;;;1.80;;
57778;SDS011;43608;49.486;9.640;2023-03-15T01:29:03;2.13;;;1.70;;
57778;SDS011;43608;49.486;9.640;2023-03-15T01:29:34;1.90;;;1.70;;
57778;SDS011;43608;49.486;9.640;2023-03-15T01:30:05;1.48;;;1.38;;
57778;SDS011;43608;49.486;9.640;2023-03-15T01:30:36;1.80;;;1.50;;
57778;SDS011;43608;49.486;9.640;2023-03-15T01:31:07;2.33;;;1.70;;
57778;SDS011;43608;49.486;9.640;2023-03-15T01:31:45;1.98;;;1.50;;
57778;SDS011;43608;49.486;9.640;2023-03-15T01:32:16;2.45;;;1.60;;
57778;SDS011;43608;49.486;9.640;2023-03-15T01:32:46;1.63;;;1.40;;
57778;SDS011;43608;49.486;9.640;2023-03-15T01:33:16;2.85;;;1.80;;
57778;SDS011;43608;49.486;9.640;2023-03-15T01:33:47;1.75;;;1.60;;
57778;SDS011;43608;49.486;9.640;2023-03-15T01:34:17;1.88;;;1.60;;
57778;SDS011;43608;49.486;9.640;2023-03-15T01:34:48;2.17;;;1.48;;
57778;SDS011;43608;49.486;9.640;2023-03-15T01:35:18;2.60;;;1.50;;
57778;SDS011;43608;49.486;9.640;2023-03-15T01:35:56;2.45;;;1.60;;
57778;SDS011;43608;49.486;9.640;2023-03-15T01:36:28;2.38;;;1.40;;
57778;SDS011;43608;49.486;9.640;2023-03-15T01:36:59;1.98;;;1.65;;
57778;SDS011;43608;49.486;9.640;2023-03-15T01:37:29;1.75;;;1.60;;
57778;SDS011;43608;49.486;9.640;2023-03-15T01:38:00;1.95;;;1.63;;
57778;SDS011;43608;49.486;9.640;2023-03-15T01:38:31;2.22;;;1.70;;
57778;SDS011;43608;49.486;9.640;2023-03-15T01:39:01;2.55;;;1.77;;
57778;SDS011;43608;49.486;9.640;2023-03-15T01:39:33;1.85;;;1.40;;
57778;SDS011;43608;49.486;9.640;2023-03-15T01:40:03;1.80;;;1.55;;
57778;SDS011;43608;49.486;9.640;2023-03-15T01:40:39;2.13;;;1.73;;
57778;SDS011;43608;49.486;9.640;2023-03-15T01:41:14;2.25;;;1.60;;
57778;SDS011;43608;49.486;9.640;2023-03-15T01:41:48;2.60;;;1.80;;
57778;SDS011;43608;49.486;9.640;2023-03-15T01:42:18;2.30;;;1.65;;
57778;SDS011;43608;49.486;9.640;2023-03-15T01:42:50;2.28;;;1.70;;
57778;SDS011;43608;49.486;9.640;2023-03-15T01:43:22;3.08;;;2.08;;
57778;SDS011;43608;49.486;9.640;2023-03-15T01:43:54;1.85;;;1.50;;
57778;SDS011;43608;49.486;9.640;2023-03-15T01:44:44;2.00;;;1.60;;
57778;SDS011;43608;49.486;9.640;2023-03-15T01:46:31;2.40;;;1.75;;
57778;SDS011;43608;49.486;9.640;2023-03-15T01:47:03;1.70;;;1.60;;
57778;SDS011;43608;49.486;9.640;2023-03-15T01:47:33;1.63;;;1.50;;
57778;SDS011;43608;49.486;9.640;2023-03-15T01:48:04;2.38;;;1.77;;
57778;SDS011;43608;49.486;9.640;2023-03-15T01:48:38;1.92;;;1.73;;
57778;SDS011;43608;49.486;9.640;2023-03-15T01:49:16;2.47;;;1.77;;
57778;SDS011;43608;49.486;9.640;2023-03-15T01:50:26;2.22;;;1.80;;
57778;SDS011;43608;49.486;9.640;2023-03-15T01:50:54;2.15;;;1.70;;
57778;SDS011;43608;49.486;9.640;2023-03-15T01:52:20;2.53;;;1.80;;
57778;SDS011;43608;49.486;9.640;2023-03-15T01:52:53;2.22;;;1.73;;
57778;SDS011;43608;49.486;9.640;2023-03-15T01:53:24;2.67;;;1.90;;
57778;SDS011;43608;49.486;9.640;2023-03-15T01:54:56;1.77;;;1.67;;
57778;SDS011;43608;49.486;9.640;2023-03-15T01:55:30;2.22;;;1.83;;
57778;SDS011;43608;49.486;9.640;2023-03-15T01:56:01;2.75;;;1.83;;
57778;SDS011;43608;49.486;9.640;2023-03-15T01:56:32;2.50;;;1.92;;
57778;SDS011;43608;49.486;9.640;2023-03-15T01:57:05;1.98;;;1.70;;
57778;SDS011;43608;49.486;9.640;2023-03-15T01:57:39;1.95;;;1.70;;
57778;SDS011;43608;49.486;9.640;2023-03-15T01:58:14;2.60;;;1.85;;
57778;SDS011;43608;49.486;9.640;2023-03-15T01:58:45;2.65;;;1.90;;
57778;SDS011;43608;49.486;9.640;2023-03-15T01:59:26;2.03;;;1.70;;
57778;SDS011;43608;49.486;9.640;2023-03-15T02:00:02;2.50;;;1.77;;
57778;SDS011;43608;49.486;9.640;2023-03-15T02:00:59;2.70;;;1.90;;
57778;SDS011;43608;49.486;9.640;2023-03-15T02:01:31;3.40;;;2.08;;
57778;SDS011;43608;49.486;9.640;2023-03-15T02:02:04;3.47;;;2.05;;
57778;SDS011;43608;49.486;9.640;2023-03-15T02:02:43;3.45;;;2.20;;
57778;SDS011;43608;49.486;9.640;2023-03-15T02:03:22;2.55;;;1.83;;
57778;SDS011;43608;49.486;9.640;2023-03-15T02:04:01;2.47;;;1.80;;
57778;SDS011;43608;49.486;9.640;2023-03-15T02:04:36;2.80;;;1.95;;
57778;SDS011;43608;49.486;9.640;2023-03-15T02:05:19;3.55;;;2.10;;
57778;SDS011;43608;49.486;9.640;2023-03-15T02:05:56;2.53;;;1.90;;
57778;SDS011;43608;49.486;9.640;2023-03-15T02:06:30;2.25;;;1.90;;
57778;SDS011;43608;49.486;9.640;2023-03-15T02:07:03;2.95;;;1.90;;
57778;SDS011;43608;49.486;9.640;2023-03-15T02:07:35;2.60;;;1.98;;
57778;SDS011;43608;49.486;9.640;2023-03-15T02:08:07;3.10;;;2.20;;
57778;SDS011;43608;49.486;9.640;2023-03-15T02:08:38;2.95;;;2.10;;
57778;SDS011;43608;49.486;9.640;2023-03-15T02:09:13;3.90;;;2.00;;
57778;SDS011;43608;49.486;9.640;2023-03-15T02:09:50;3.35;;;2.00;;
57778;SDS011;43608;49.486;9.640;2023-03-15T02:10:44;3.75;;;1.92;;
57778;SDS011;43608;49.486;9.640;2023-03-15T02:11:19;2.00;;;1.80;;
57778;SDS011;43608;49.486;9.640;2023-03-15T02:11:51;2.88;;;1.90;;
57778;SDS011;43608;49.486;9.640;2023-03-15T02:12:21;3.10;;;1.88;;
57778;SDS011;43608;49.486;9.640;2023-03-15T02:12:51;2.70;;;2.00;;
57778;SDS011;43608;49.486;9.640;2023-03-15T02:13:24;2.80;;;2.10;;
57778;SDS011;43608;49.486;9.640;2023-03-15T02:13:57;2.42;;;2.00;;
57778;SDS011;43608;49.486;9.640;2023-03-15T02:14:29;2.72;;;1.95;;
57778;SDS011;43608;49.486;9.640;2023-03-15T02:15:03;3.13;;;1.98;;
57778;SDS011;43608;49.486;9.640;2023-03-15T02:15:35;2.97;;;1.90;;
57778;SDS011;43608;49.486;9.640;2023-03-15T02:16:05;2.70;;;2.00;;
57778;SDS011;43608;49.486;9.640;2023-03-15T02:16:36;2.30;;;1.90;;
57778;SDS011;43608;49.486;9.640;2023-03-15T02:17:07;2.38;;;1.90;;
57778;SDS011;43608;49.486;9.640;2023-03-15T02:17:38;2.72;;;1.80;;
57778;SDS011;43608;49.486;9.640;2023-03-15T02:18:12;3.28;;;2.05;;
57778;SDS011;43608;49.486;9.640;2023-03-15T02:18:43;2.70;;;1.77;;
57778;SDS011;43608;49.486;9.640;2023-03-15T02:19:21;2.35;;;1.85;;
57778;SDS011;43608;49.486;9.640;2023-03-15T02:22:52;2.60;;;2.00;;
57778;SDS011;43608;49.486;9.640;2023-03-15T02:23:26;2.70;;;2.00;;
57778;SDS011;43608;49.486;9.640;2023-03-15T02:26:28;3.00;;;2.00;;
57778;SDS011;43608;49.486;9.640;2023-03-15T02:27:03;2.47;;;1.80;;
57778;SDS011;43608;49.486;9.640;2023-03-15T02:27:33;3.03;;;2.13;;
57778;SDS011;43608;49.486;9.640;2023-03-15T02:28:06;2.30;;;2.10;;
57778;SDS011;43608;49.486;9.640;2023-03-15T02:28:39;3.05;;;2.05;;
57778;SDS011;43608;49.486;9.640;2023-03-15T02:29:10;2.92;;;2.10;;
57778;SDS011;43608;49.486;9.640;2023-03-15T02:29:41;3.35;;;2.15;;
57778;SDS011;43608;49.486;9.640;2023-03-15T02:30:12;2.63;;;1.92;;
57778;SDS011;43608;49.486;9.640;2023-03-15T02:30:43;2.72;;;2.10;;
57778;SDS011;43608;49.486;9.640;2023-03-15T02:31:14;2.45;;;2.00;;
57778;SDS011;43608;49.486;9.640;2023-03-15T02:31:45;2.65;;;2.10;;
57778;SDS011;43608;49.486;9.640;2023-03-15T02:32:15;2.58;;;1.90;;
57778;SDS011;43608;49.486;9.640;2023-03-15T02:32:46;2.75;;;2.10;;
57778;SDS011;43608;49.486;9.640;2023-03-15T02:33:53;2.35;;;1.85;;
57778;SDS011;43608;49.486;9.640;2023-03-15T02:34:26;2.38;;;2.00;;
57778;SDS011;43608;49.486;9.640;2023-03-15T02:34:56;2.45;;;2.00;;
57778;SDS011;43608;49.486;9.640;2023-03-15T02:35:28;3.90;;;2.20;;
57778;SDS011;43608;49.486;9.640;2023-03-15T02:36:48;2.22;;;1.90;;
57778;SDS011;43608;49.486;9.640;2023-03-15T02:37:18;2.83;;;2.10;;
57778;SDS011;43608;49.486;9.640;2023-03-15T02:37:50;2.05;;;1.80;;
57778;SDS011;43608;49.486;9.640;2023-03-15T02:38:21;2.88;;;1.90;;
57778;SDS011;43608;49.486;9.640;2023-03-15T02:38:52;2.85;;;2.00;;
57778;SDS011;43608;49.486;9.640;2023-03-15T02:39:23;4.55;;;2.35;;
57778;SDS011;43608;49.486;9.640;2023-03-15T02:39:54;3.45;;;2.10;;
57778;SDS011;43608;49.486;9.640;2023-03-15T02:40:25;3.50;;;2.30;;
57778;SDS011;43608;49.486;9.640;2023-03-15T02:40:57;3.08;;;2.10;;
57778;SDS011;43608;49.486;9.640;2023-03-15T02:42:02;2.55;;;2.10;;
57778;SDS011;43608;49.486;9.640;2023-03-15T02:42:32;3.03;;;2.10;;
57778;SDS011;43608;49.486;9.640;2023-03-15T02:43:08;2.38;;;1.80;;
57778;SDS011;43608;49.486;9.640;2023-03-15T02:43:48;2.25;;;1.80;;
57778;SDS011;43608;49.486;9.640;2023-03-15T02:44:27;2.38;;;1.98;;
57778;SDS011;43608;49.486;9.640;2023-03-15T02:45:01;2.30;;;1.90;;
57778;SDS011;43608;49.486;9.640;2023-03-15T02:45:31;2.55;;;1.98;;
57778;SDS011;43608;49.486;9.640;2023-03-15T02:46:04;2.88;;;1.90;;
57778;SDS011;43608;49.486;9.640;2023-03-15T02:46:35;3.03;;;2.05;;
57778;SDS011;43608;49.486;9.640;2023-03-15T02:47:40;3.67;;;1.92;;
57778;SDS011;43608;49.486;9.640;2023-03-15T02:48:10;2.75;;;2.20;;
57778;SDS011;43608;49.486;9.640;2023-03-15T02:48:42;2.40;;;2.00;;
57778;SDS011;43608;49.486;9.640;2023-03-15T02:49:14;3.20;;;2.20;;
57778;SDS011;43608;49.486;9.640;2023-03-15T02:49:48;2.55;;;2.10;;
57778;SDS011;43608;49.486;9.640;2023-03-15T02:50:21;2.72;;;2.17;;
57778;SDS011;43608;49.486;9.640;2023-03-15T02:50:51;2.45;;;1.90;;
57778;SDS011;43608;49.486;9.640;2023-03-15T02:51:22;3.08;;;2.00;;
57778;SDS011;43608;49.486;9.640;2023-03-15T02:51:53;3.15;;;2.22;;
57778;SDS011;43608;49.486;9.640;2023-03-15T02:52:24;3.45;;;2.10;;
57778;SDS011;43608;49.486;9.640;2023-03-15T02:52:55;3.78;;;2.10;;
57778;SDS011;43608;49.486;9.640;2023-03-15T02:53:25;3.13;;;2.10;;
57778;SDS011;43608;49.486;9.640;2023-03-15T02:53:56;2.63;;;2.13;;
57778;SDS011;43608;49.486;9.640;2023-03-15T02:54:26;2.83;;;2.10;;
57778;SDS011;43608;49.486;9.640;2023-03-15T02:54:56;3.50;;;2.13;;
57778;SDS011;43608;49.486;9.640;2023-03-15T02:55:27;3.63;;;2.08;;
57778;SDS011;43608;49.486;9.640;2023-03-15T02:55:58;3.38;;;2.20;;
57778;SDS011;43608;49.486;9.640;2023-03-15T02:56:28;3.15;;;2.17;;
57778;SDS011;43608;49.486;9.640;2023-03-15T02:57:02;3.67;;;2.30;;
57778;SDS011;43608;49.486;9.640;2023-03-15T02:57:32;3.00;;;2.20;;
57778;SDS011;43608;49.486;9.640;2023-03-15T02:58:03;3.75;;;2.30;;
57778;SDS011;43608;49.486;9.640;2023-03-15T02:58:34;2.95;;;1.90;;
57778;SDS011;43608;49.486;9.640;2023-03-15T02:59:04;3.17;;;2.17;;
57778;SDS011;43608;49.486;9.640;2023-03-15T02:59:34;2.75;;;2.05;;
57778;SDS011;43608;49.486;9.640;2023-03-15T03:00:05;3.50;;;2.20;;
57778;SDS011;43608;49.486;9.640;2023-03-15T03:00:43;2.90;;;2.10;;
57778;SDS011;43608;49.486;9.640;2023-03-15T03:01:13;3.20;;;2.20;;
57778;SDS011;43608;49.486;9.640;2023-03-15T03:01:45;2.55;;;1.83;;
57778;SDS011;43608;49.486;9.640;2023-03-15T03:02:15;3.25;;;2.20;;
57778;SDS011;43608;49.486;9.640;2023-03-15T03:02:46;3.00;;;2.25;;
57778;SDS011;43608;49.486;9.640;2023-03-15T03:03:17;3.50;;;2.40;;
57778;SDS011;43608;49.486;9.640;2023-03-15T03:03:47;2.70;;;1.92;;
57778;SDS011;43608;49.486;9.640;2023-03-15T03:04:18;2.80;;;2.20;;
57778;SDS011;43608;49.486;9.640;2023-03-15T03:04:48;2.65;;;1.90;;
57778;SDS011;43608;49.486;9.640;2023-03-15T03:05:18;3.97;;;2.30;;
57778;SDS011;43608;49.486;9.640;2023-03-15T03:05:49;3.22;;;1.92;;
57778;SDS011;43608;49.486;9.640;2023-03-15T03:06:19;3.72;;;2.13;;
57778;SDS011;43608;49.486;9.640;2023-03-15T03:06:50;3.35;;;1.98;;
57778;SDS011;43608;49.486;9.640;2023-03-15T03:07:20;3.45;;;2.13;;
57778;SDS011;43608;49.486;9.640;2023-03-15T03:07:50;2.80;;;2.00;;
57778;SDS011;43608;49.486;9.640;2023-03-15T03:08:21;3.10;;;2.25;;
57778;SDS011;43608;49.486;9.640;2023-03-15T03:08:51;3.28;;;2.08;;
57778;SDS011;43608;49.486;9.640;2023-03-15T03:09:22;2.47;;;1.90;;
57778;SDS011;43608;49.486;9.640;2023-03-15T03:09:53;3.28;;;2.10;;
57778;SDS011;43608;49.486;9.640;2023-03-15T03:10:24;3.15;;;2.05;;
57778;SDS011;43608;49.486;9.640;2023-03-15T03:10:55;2.95;;;2.30;;
57778;SDS011;43608;49.486;9.640;2023-03-15T03:11:25;2.38;;;2.03;;
57778;SDS011;43608;49.486;9.640;2023-03-15T03:11:56;3.00;;;2.20;;
57778;SDS011;43608;49.486;9.640;2023-03-15T03:12:26;3.92;;;2.03;;
57778;SDS011;43608;49.486;9.640;2023-03-15T03:12:56;3.00;;;2.10;;
57778;SDS011;43608;49.486;9.640;2023-03-15T03:13:27;3.08;;;2.10;;
57778;SDS011;43608;49.486;9.640;2023-03-15T03:13:57;3.15;;;2.20;;
57778;SDS011;43608;49.486;9.640;2023-03-15T03:14:28;2.55;;;2.00;;
57778;SDS011;43608;49.486;9.640;2023-03-15T03:14:58;3.40;;;2.00;;
57778;SDS011;43608;49.486;9.640;2023-03-15T03:15:28;2.55;;;2.10;;
57778;SDS011;43608;49.486;9.640;2023-03-15T03:15:59;2.85;;;2.00;;
57778;SDS011;43608;49.486;9.640;2023-03-15T03:16:29;2.10;;;1.75;;
57778;SDS011;43608;49.486;9.640;2023-03-15T03:17:01;3.25;;;2.10;;
57778;SDS011;43608;49.486;9.640;2023-03-15T03:17:31;4.07;;;2.10;;
57778;SDS011;43608;49.486;9.640;2023-03-15T03:18:06;3.75;;;2.10;;
57778;SDS011;43608;49.486;9.640;2023-03-15T03:18:36;3.42;;;2.30;;
57778;SDS011;43608;49.486;9.640;2023-03-15T03:19:08;2.60;;;2.15;;
57778;SDS011;43608;49.486;9.640;2023-03-15T03:19:41;2.58;;;2.05;;
57778;SDS011;43608;49.486;9.640;2023-03-15T03:20:12;2.67;;;2.05;;
57778;SDS011;43608;49.486;9.640;2023-03-15T03:20:43;3.63;;;2.13;;
57778;SDS011;43608;49.486;9.640;2023-03-15T03:21:15;3.75;;;2.10;;
57778;SDS011;43608;49.486;9.640;2023-03-15T03:21:45;3.20;;;2.22;;
57778;SDS011;43608;49.486;9.640;2023-03-15T03:22:15;2.83;;;2.20;;
57778;SDS011;43608;49.486;9.640;2023-03-15T03:22:46;3.25;;;2.08;;
57778;SDS011;43608;49.486;9.640;2023-03-15T03:23:17;3.95;;;2.42;;
57778;SDS011;43608;49.486;9.640;2023-03-15T03:23:47;4.20;;;2.30;;
57778;SDS011;43608;49.486;9.640;2023-03-15T03:24:17;3.42;;;2.22;;